Time;durP1;ratioP1;P1;durP2;ratioP2;P2;SDS_P1;SDS_P2;PMS_P1;PMS_P2;Temp;Humidity;BMP_temperature;BMP_pressure;BME280_temperature;BME280_humidity;BME280_pressure;Samples;Min_cycle;Max_cycle;Signal;HPM_P1;HPM_P2
2022/01/07 00:00:13;;;;;;;10.40;8.70;;;1.90;63.40;;;;;;5029656;28;20777;-89
2022/01/07 00:02:39;;;;;;;11.27;8.90;;;1.90;63.60;;;;;;5029602;28;20791;-89
2022/01/07 00:05:06;;;;;;;9.47;8.50;;;1.90;61.50;;;;;;5029542;28;20427;-86
2022/01/07 00:07:32;;;;;;;10.70;9.43;;;1.70;61.30;;;;;;5029016;28;20441;-88
2022/01/07 00:09:57;;;;;;;11.93;9.13;;;1.60;61.80;;;;;;5028800;28;20960;-84
2022/01/07 00:12:23;;;;;;;10.00;9.00;;;1.60;62.50;;;;;;5029012;28;20190;-83
2022/01/07 00:14:49;;;;;;;12.80;9.60;;;1.50;62.30;;;;;;5028460;28;20207;-83
2022/01/07 00:17:16;;;;;;;10.63;9.63;;;1.60;62.90;;;;;;5028035;28;20259;-84
2022/01/07 00:19:42;;;;;;;10.60;8.90;;;1.70;63.70;;;;;;5028590;28;20453;-83
2022/01/07 00:22:08;;;;;;;9.00;8.00;;;1.70;63.20;;;;;;5028321;28;20533;-83
2022/01/07 00:24:33;;;;;;;8.57;7.73;;;1.60;61.00;;;;;;5027954;28;20418;-83
2022/01/07 00:26:59;;;;;;;8.03;7.30;;;1.50;61.10;;;;;;5028086;28;20184;-84
2022/01/07 00:29:25;;;;;;;10.17;7.97;;;1.50;60.30;;;;;;5028252;28;20173;-83
2022/01/07 00:31:50;;;;;;;8.97;7.87;;;1.50;61.00;;;;;;5029568;28;20207;-84
2022/01/07 00:34:16;;;;;;;8.60;7.50;;;1.50;61.20;;;;;;5027643;28;20418;-84
2022/01/07 00:36:41;;;;;;;10.20;7.70;;;1.50;62.10;;;;;;5028608;28;20703;-89
2022/01/07 00:39:07;;;;;;;13.30;7.70;;;1.50;61.10;;;;;;5030447;28;20648;-89
2022/01/07 00:41:33;;;;;;;10.60;8.50;;;1.60;62.10;;;;;;5029326;28;20234;-89
2022/01/07 00:43:58;;;;;;;10.93;8.60;;;1.50;61.00;;;;;;5028625;28;20192;-89
2022/01/07 00:46:24;;;;;;;9.27;8.47;;;1.50;62.30;;;;;;5030122;28;20271;-89
2022/01/07 00:48:50;;;;;;;10.80;9.70;;;1.40;62.20;;;;;;5028896;28;20344;-89
2022/01/07 00:51:15;;;;;;;9.30;8.23;;;1.50;62.60;;;;;;5028660;28;20200;-84
2022/01/07 00:53:41;;;;;;;9.30;8.40;;;1.40;62.60;;;;;;5028686;28;20230;-83
2022/01/07 00:56:07;;;;;;;10.07;9.07;;;1.40;62.90;;;;;;5031304;28;20263;-83
2022/01/07 00:58:32;;;;;;;10.30;8.10;;;1.40;63.00;;;;;;5031568;28;20283;-83
2022/01/07 01:00:58;;;;;;;9.07;8.07;;;1.40;62.70;;;;;;5031662;28;20176;-84
2022/01/07 01:03:24;;;;;;;11.23;9.03;;;1.30;62.60;;;;;;5031959;28;20346;-83
2022/01/07 01:05:49;;;;;;;9.07;8.00;;;1.30;63.40;;;;;;5032024;28;20388;-84
2022/01/07 01:08:15;;;;;;;8.60;7.80;;;1.50;63.20;;;;;;5031913;28;20208;-84
2022/01/07 01:10:41;;;;;;;10.25;8.82;;;1.60;63.10;;;;;;5031385;28;20200;-82
2022/01/07 01:13:07;;;;;;;9.50;8.70;;;1.60;61.10;;;;;;5031308;28;20423;-84
2022/01/07 01:15:32;;;;;;;9.40;8.40;;;1.60;62.20;;;;;;5032015;28;20652;-83
2022/01/07 01:17:59;;;;;;;9.53;8.03;;;1.60;62.70;;;;;;5031017;28;20175;-83
2022/01/07 01:20:25;;;;;;;11.45;7.90;;;1.60;62.80;;;;;;5031465;28;20267;-83
2022/01/07 01:22:51;;;;;;;9.80;8.27;;;1.50;60.50;;;;;;5031582;28;20226;-83
2022/01/07 01:25:17;;;;;;;8.90;7.87;;;1.40;61.00;;;;;;5031496;28;20424;-84
2022/01/07 01:27:43;;;;;;;9.15;8.20;;;1.40;62.60;;;;;;5031150;28;20200;-83
2022/01/07 01:30:11;;;;;;;9.90;8.23;;;1.40;62.40;;;;;;5031315;28;20197;-83
2022/01/07 01:32:38;;;;;;;9.88;7.88;;;1.40;63.10;;;;;;5030856;28;20907;-83
2022/01/07 01:35:06;;;;;;;9.90;8.90;;;1.30;62.30;;;;;;5030804;28;20177;-83
2022/01/07 01:37:32;;;;;;;9.27;8.37;;;1.30;62.10;;;;;;5030950;28;20430;-84
2022/01/07 01:39:58;;;;;;;10.10;8.73;;;1.40;62.60;;;;;;5030212;28;20762;-83
2022/01/07 01:42:24;;;;;;;9.27;8.37;;;1.40;61.20;;;;;;5031053;28;20641;-83
2022/01/07 01:44:50;;;;;;;11.90;8.73;;;1.40;62.00;;;;;;5030264;28;20870;-83
2022/01/07 01:47:16;;;;;;;12.27;9.10;;;1.30;61.30;;;;;;5030794;28;20514;-82
2022/01/07 01:49:43;;;;;;;9.20;8.40;;;1.30;62.60;;;;;;5031639;28;20415;-82
2022/01/07 01:52:08;;;;;;;9.53;8.47;;;1.30;62.50;;;;;;5030133;28;20435;-83
2022/01/07 01:54:34;;;;;;;9.10;8.27;;;1.30;62.90;;;;;;5029981;28;20796;-84
2022/01/07 01:57:00;;;;;;;9.40;8.60;;;1.30;63.30;;;;;;5030306;28;20185;-83
2022/01/07 01:59:30;;;;;;;11.50;8.40;;;1.20;62.30;;;;;;5030297;28;20223;-83
2022/01/07 02:01:57;;;;;;;10.95;9.48;;;1.20;62.50;;;;;;5030188;28;20662;-84
2022/01/07 02:04:22;;;;;;;10.05;8.93;;;1.10;61.60;;;;;;5030387;28;20181;-84
2022/01/07 02:06:49;;;;;;;11.90;8.83;;;1.30;62.60;;;;;;5030651;28;20194;-89
2022/01/07 02:09:15;;;;;;;9.90;8.93;;;1.20;62.30;;;;;;5031148;28;20714;-89
2022/01/07 02:11:41;;;;;;;9.48;8.68;;;1.20;62.30;;;;;;5030833;28;20216;-89
2022/01/07 02:14:07;;;;;;;9.87;8.97;;;1.20;62.80;;;;;;5031312;28;20179;-87
2022/01/07 02:16:32;;;;;;;10.30;9.40;;;1.30;63.20;;;;;;5031582;28;20223;-88
2022/01/07 02:18:58;;;;;;;10.20;9.20;;;1.30;62.90;;;;;;5031941;28;20173;-91
2022/01/07 02:21:26;;;;;;;10.30;9.30;;;1.30;62.30;;;;;;5031209;28;20718;-89
2022/01/07 02:23:52;;;;;;;11.00;8.70;;;1.20;61.70;;;;;;5030788;28;20207;-83
2022/01/07 02:26:19;;;;;;;10.63;9.73;;;1.20;62.10;;;;;;5029976;28;20415;-90
2022/01/07 02:28:45;;;;;;;10.05;9.02;;;1.20;62.30;;;;;;5030687;28;20181;-88
2022/01/07 02:31:12;;;;;;;10.63;9.32;;;1.20;62.30;;;;;;5030840;28;20223;-88
2022/01/07 02:33:38;;;;;;;10.70;9.27;;;1.30;62.50;;;;;;5030592;28;20512;-88
2022/01/07 02:36:11;;;;;;;10.00;9.00;;;1.20;61.80;;;;;;5030955;28;20482;-88
2022/01/07 02:38:37;;;;;;;11.33;9.50;;;1.10;62.90;;;;;;5030979;28;20181;-88
2022/01/07 02:41:03;;;;;;;10.03;9.03;;;1.20;62.90;;;;;;5032215;28;20403;-88
2022/01/07 02:43:29;;;;;;;10.10;8.68;;;1.30;62.80;;;;;;5032553;28;20788;-88
2022/01/07 02:45:55;;;;;;;10.23;9.27;;;1.20;63.40;;;;;;5032209;28;20614;-88
2022/01/07 02:48:21;;;;;;;9.13;8.27;;;1.30;62.30;;;;;;5031233;28;20494;-89
2022/01/07 02:50:46;;;;;;;10.80;8.93;;;1.30;61.60;;;;;;5030852;28;20211;-89
2022/01/07 02:53:12;;;;;;;11.30;8.50;;;1.40;61.60;;;;;;5030460;28;20710;-89
2022/01/07 02:55:41;;;;;;;9.57;8.60;;;1.40;59.60;;;;;;5031071;28;20177;-88
2022/01/07 02:58:08;;;;;;;12.23;9.32;;;1.40;61.00;;;;;;5030794;28;20184;-89
2022/01/07 03:00:35;;;;;;;10.23;9.40;;;1.30;61.20;;;;;;5030834;28;20196;-90
2022/01/07 03:03:04;;;;;;;10.07;9.03;;;1.30;61.00;;;;;;5030079;28;20411;-89
2022/01/07 03:05:29;;;;;;;10.35;9.27;;;1.20;61.10;;;;;;5030484;28;20429;-87
2022/01/07 03:07:55;;;;;;;11.13;10.20;;;1.30;61.90;;;;;;5030258;28;20176;-89
2022/01/07 03:10:29;;;;;;;9.10;7.95;;;1.30;61.00;;;;;;5030412;28;20288;-88
2022/01/07 03:12:56;;;;;;;10.93;10.00;;;1.20;60.60;;;;;;5029804;28;20200;-87
2022/01/07 03:15:22;;;;;;;11.95;9.57;;;1.20;60.00;;;;;;5030706;28;20607;-88
2022/01/07 03:17:48;;;;;;;10.60;9.60;;;1.20;60.70;;;;;;5029865;28;20198;-88
2022/01/07 03:20:19;;;;;;;9.43;8.63;;;1.20;60.70;;;;;;5030024;28;20271;-88
2022/01/07 03:22:46;;;;;;;9.80;8.93;;;1.20;61.60;;;;;;5030268;28;20467;-88
2022/01/07 03:25:12;;;;;;;10.40;9.40;;;1.10;60.30;;;;;;5030003;28;20180;-89
2022/01/07 03:27:38;;;;;;;9.35;8.52;;;1.20;61.20;;;;;;5030168;28;20246;-89
2022/01/07 03:30:07;;;;;;;9.53;8.63;;;1.20;60.60;;;;;;5030200;28;20192;-88
2022/01/07 03:32:33;;;;;;;8.38;7.68;;;1.20;60.20;;;;;;5029817;28;20443;-89
2022/01/07 03:34:59;;;;;;;8.63;7.72;;;1.20;60.40;;;;;;5029519;28;20660;-88
2022/01/07 03:37:24;;;;;;;8.90;8.20;;;1.30;60.20;;;;;;5030162;28;20173;-89
2022/01/07 03:39:50;;;;;;;8.93;8.00;;;1.20;59.80;;;;;;5029584;28;20183;-88
2022/01/07 03:42:16;;;;;;;7.63;7.03;;;1.20;59.30;;;;;;5029863;28;20245;-90
2022/01/07 03:44:42;;;;;;;7.10;6.50;;;1.30;59.10;;;;;;5029581;28;20182;-90
2022/01/07 03:47:07;;;;;;;9.10;7.23;;;1.30;59.20;;;;;;5029534;28;20193;-87
2022/01/07 03:49:33;;;;;;;5.87;5.23;;;1.30;57.70;;;;;;5029878;28;20434;-88
2022/01/07 03:51:59;;;;;;;6.60;6.00;;;1.30;57.30;;;;;;5027576;28;20223;-84
2022/01/07 03:54:24;;;;;;;6.90;6.27;;;1.30;55.90;;;;;;5028198;28;20560;-89
2022/01/07 03:56:50;;;;;;;6.50;5.90;;;1.30;56.60;;;;;;5028872;28;20176;-89
2022/01/07 03:59:15;;;;;;;7.10;6.50;;;1.30;56.50;;;;;;5027945;28;20339;-89
2022/01/07 04:01:41;;;;;;;6.80;6.20;;;1.30;55.40;;;;;;5028447;28;20651;-87
2022/01/07 04:04:07;;;;;;;7.70;6.20;;;1.20;55.60;;;;;;5027983;28;20188;-88
2022/01/07 04:06:32;;;;;;;6.57;5.87;;;1.20;56.30;;;;;;5027433;28;20271;-83
2022/01/07 04:08:58;;;;;;;6.20;5.80;;;1.30;57.00;;;;;;5026987;28;20240;-84
2022/01/07 04:11:24;;;;;;;7.53;6.00;;;1.30;56.40;;;;;;5027034;28;20665;-81
2022/01/07 04:13:50;;;;;;;7.70;6.90;;;1.30;55.80;;;;;;5026942;28;20275;-79
2022/01/07 04:16:15;;;;;;;6.30;5.53;;;1.30;55.90;;;;;;5025976;28;21023;-80
2022/01/07 04:18:41;;;;;;;7.73;6.73;;;1.20;56.10;;;;;;5022925;28;20181;-79
2022/01/07 04:21:07;;;;;;;6.20;5.60;;;1.20;56.10;;;;;;5006656;28;20549;-80
2022/01/07 04:23:33;;;;;;;7.17;6.53;;;1.20;55.10;;;;;;5007114;28;20180;-83
2022/01/07 04:25:59;;;;;;;6.20;5.63;;;1.20;54.60;;;;;;5007291;28;20211;-83
2022/01/07 04:28:24;;;;;;;6.20;5.70;;;1.20;56.00;;;;;;5017239;28;20255;-88
2022/01/07 04:30:50;;;;;;;6.03;5.53;;;1.30;55.50;;;;;;5032105;28;20200;-88
2022/01/07 04:33:22;;;;;;;7.60;6.90;;;1.20;54.60;;;;;;5012153;28;20592;-89
2022/01/07 04:35:48;;;;;;;8.40;6.57;;;1.10;54.60;;;;;;5012309;28;20191;-90
2022/01/07 04:38:14;;;;;;;6.75;6.15;;;1.10;55.10;;;;;;5013287;28;20260;-89
2022/01/07 04:40:40;;;;;;;7.25;6.60;;;0.90;54.60;;;;;;5013240;28;20183;-89
2022/01/07 04:43:06;;;;;;;6.90;6.17;;;1.00;56.20;;;;;;5012822;28;20315;-89
2022/01/07 04:45:33;;;;;;;9.77;6.53;;;1.00;56.60;;;;;;5013638;28;20191;-90
2022/01/07 04:47:58;;;;;;;6.97;6.38;;;1.10;55.10;;;;;;5026784;28;20293;-89
2022/01/07 04:50:24;;;;;;;7.90;7.20;;;0.90;56.20;;;;;;5025031;28;20227;-90
2022/01/07 04:52:51;;;;;;;8.37;7.57;;;0.90;56.80;;;;;;4989110;28;1094128;-90
2022/01/07 04:55:20;;;;;;;8.18;6.72;;;0.80;56.00;;;;;;5035160;28;20453;-90
2022/01/07 04:57:46;;;;;;;9.35;8.02;;;0.90;57.70;;;;;;5035518;28;20173;-90
2022/01/07 05:00:14;;;;;;;8.98;7.75;;;0.90;57.20;;;;;;5035824;28;20200;-89
2022/01/07 05:02:40;;;;;;;8.75;7.13;;;0.70;56.20;;;;;;5035335;28;20204;-90
2022/01/07 05:05:06;;;;;;;7.70;7.00;;;0.80;57.90;;;;;;5035278;28;20173;-89
2022/01/07 05:07:33;;;;;;;10.48;7.65;;;0.80;58.10;;;;;;5034431;28;20567;-91
2022/01/07 05:09:59;;;;;;;8.13;7.38;;;0.80;57.40;;;;;;5034988;28;20188;-89
2022/01/07 05:12:25;;;;;;;8.67;7.77;;;0.80;59.00;;;;;;5035432;28;20621;-89
2022/01/07 05:14:50;;;;;;;8.00;7.30;;;0.80;58.80;;;;;;5035307;28;20190;-90
2022/01/07 05:17:16;;;;;;;8.27;7.47;;;0.80;58.20;;;;;;5035521;28;20332;-90
2022/01/07 05:19:42;;;;;;;10.53;9.37;;;0.80;58.40;;;;;;5034653;28;20230;-89
2022/01/07 05:22:07;;;;;;;11.90;9.00;;;0.80;58.90;;;;;;5035265;28;20188;-90
2022/01/07 05:24:33;;;;;;;9.40;8.30;;;0.70;58.70;;;;;;5035179;28;20590;-90
2022/01/07 05:26:59;;;;;;;9.07;7.03;;;0.80;58.90;;;;;;5035359;28;20214;-91
2022/01/07 05:29:25;;;;;;;8.80;7.28;;;0.90;59.00;;;;;;5034840;28;20205;-90
2022/01/07 05:31:51;;;;;;;11.52;8.15;;;0.80;58.90;;;;;;5035129;28;20201;-90
2022/01/07 05:34:17;;;;;;;9.27;8.37;;;0.80;58.10;;;;;;5034264;28;20211;-85
2022/01/07 05:36:42;;;;;;;8.70;7.87;;;0.80;58.60;;;;;;5033344;28;20539;-85
2022/01/07 05:39:08;;;;;;;8.73;7.93;;;0.70;59.30;;;;;;5032586;28;20180;-84
2022/01/07 05:41:33;;;;;;;8.10;7.40;;;0.80;59.00;;;;;;5033594;28;20557;-84
2022/01/07 05:43:59;;;;;;;8.83;8.03;;;0.90;59.00;;;;;;5033324;28;20183;-83
2022/01/07 05:46:25;;;;;;;9.10;8.10;;;0.80;58.20;;;;;;5033402;28;20180;-83
2022/01/07 05:48:50;;;;;;;8.87;7.40;;;0.90;59.90;;;;;;5033619;28;20183;-85
2022/01/07 05:51:16;;;;;;;9.37;7.63;;;0.90;59.60;;;;;;5033056;28;20239;-84
2022/01/07 05:53:42;;;;;;;9.20;7.90;;;0.90;59.90;;;;;;5033328;28;20373;-83
2022/01/07 05:56:08;;;;;;;9.00;8.10;;;1.00;59.20;;;;;;5033187;28;20180;-83
2022/01/07 05:58:34;;;;;;;9.15;8.20;;;1.00;59.10;;;;;;5032851;28;20179;-83
2022/01/07 06:01:00;;;;;;;12.97;8.87;;;0.90;58.30;;;;;;5033036;28;20521;-83
2022/01/07 06:03:26;;;;;;;10.80;8.75;;;0.80;58.80;;;;;;5033210;28;20423;-83
2022/01/07 06:05:52;;;;;;;9.80;8.80;;;0.90;60.70;;;;;;5032878;28;20697;-83
2022/01/07 06:08:18;;;;;;;9.00;8.10;;;1.00;60.20;;;;;;5033314;28;20177;-84
2022/01/07 06:10:44;;;;;;;9.70;8.40;;;1.00;59.60;;;;;;5032857;28;20207;-83
2022/01/07 06:13:09;;;;;;;9.65;7.85;;;0.90;59.10;;;;;;5032950;28;20184;-83
2022/01/07 06:15:35;;;;;;;9.83;8.67;;;1.00;59.70;;;;;;5033091;28;20267;-82
2022/01/07 06:18:04;;;;;;;9.63;8.73;;;1.00;60.50;;;;;;5032672;28;20178;-84
2022/01/07 06:20:30;;;;;;;9.38;8.48;;;1.00;59.80;;;;;;5032874;28;20228;-84
2022/01/07 06:22:56;;;;;;;10.43;9.43;;;1.10;60.20;;;;;;5032624;28;20182;-83
2022/01/07 06:25:22;;;;;;;14.57;9.47;;;1.10;60.00;;;;;;5032679;28;20430;-84
2022/01/07 06:27:47;;;;;;;11.67;9.53;;;1.10;60.50;;;;;;5032556;28;20176;-84
2022/01/07 06:30:13;;;;;;;10.67;9.43;;;1.10;61.00;;;;;;5032558;28;20739;-84
2022/01/07 06:32:39;;;;;;;12.80;9.57;;;1.10;60.20;;;;;;5032373;28;20171;-83
2022/01/07 06:35:05;;;;;;;13.07;10.70;;;1.20;60.20;;;;;;5032526;28;20181;-85
2022/01/07 06:37:31;;;;;;;10.68;9.57;;;1.20;60.70;;;;;;5032442;28;20176;-85
2022/01/07 06:39:58;;;;;;;11.03;9.80;;;1.20;59.40;;;;;;5030762;28;20204;-84
2022/01/07 06:42:24;;;;;;;15.18;10.68;;;1.20;59.70;;;;;;5032256;28;20173;-83
2022/01/07 06:44:49;;;;;;;11.20;10.00;;;1.20;60.20;;;;;;5032143;28;20175;-83
2022/01/07 06:47:15;;;;;;;10.80;9.70;;;1.20;60.20;;;;;;5032717;28;20204;-84
2022/01/07 06:49:41;;;;;;;9.70;8.63;;;1.20;60.00;;;;;;5031916;28;20632;-84
2022/01/07 06:52:07;;;;;;;10.23;9.20;;;1.30;59.80;;;;;;5031446;28;20223;-83
2022/01/07 06:54:32;;;;;;;10.70;9.60;;;1.30;59.70;;;;;;5033096;28;20248;-83
2022/01/07 06:56:58;;;;;;;10.30;9.30;;;1.30;59.70;;;;;;5031537;28;20439;-85
2022/01/07 06:59:24;;;;;;;10.60;9.13;;;1.30;59.40;;;;;;5031366;28;20169;-83
2022/01/07 07:01:50;;;;;;;10.23;9.13;;;1.30;59.10;;;;;;5032140;28;20542;-84
2022/01/07 07:04:17;;;;;;;9.97;9.07;;;1.20;59.70;;;;;;5031767;28;20700;-84
2022/01/07 07:06:43;;;;;;;11.65;8.90;;;1.20;59.50;;;;;;5032006;28;20607;-85
2022/01/07 07:09:09;;;;;;;11.63;10.52;;;1.20;59.40;;;;;;5031677;28;20547;-85
2022/01/07 07:11:35;;;;;;;9.52;8.52;;;1.20;58.90;;;;;;5031443;28;20229;-84
2022/01/07 07:14:01;;;;;;;11.97;10.30;;;1.10;59.20;;;;;;5031782;28;20676;-84
2022/01/07 07:16:27;;;;;;;9.77;8.77;;;1.20;59.90;;;;;;5031601;28;20423;-84
2022/01/07 07:18:53;;;;;;;11.10;10.00;;;1.20;58.50;;;;;;5031586;28;20176;-84
2022/01/07 07:21:19;;;;;;;10.67;9.57;;;1.20;58.50;;;;;;5031215;28;20418;-85
2022/01/07 07:23:45;;;;;;;10.47;9.57;;;1.20;59.40;;;;;;5031518;28;20420;-85
2022/01/07 07:26:11;;;;;;;10.00;8.50;;;1.30;59.80;;;;;;5031316;28;20551;-85
2022/01/07 07:28:38;;;;;;;11.13;9.30;;;1.30;59.10;;;;;;5031299;28;20187;-84
2022/01/07 07:31:06;;;;;;;8.93;8.07;;;1.30;58.20;;;;;;5031082;28;20686;-84
2022/01/07 07:33:55;;;;;;;10.73;9.70;;;1.30;59.00;;;;;;5031484;28;20188;-83
2022/01/07 07:36:32;;;;;;;9.60;8.43;;;1.30;58.80;;;;;;5032075;28;20229;-84
2022/01/07 07:39:06;;;;;;;10.75;9.65;;;1.30;59.40;;;;;;5032491;28;20244;-86
2022/01/07 07:41:33;;;;;;;11.60;9.98;;;1.40;59.40;;;;;;5031029;28;20180;-85
2022/01/07 07:44:00;;;;;;;12.23;10.00;;;1.50;59.20;;;;;;5031483;28;20668;-84
2022/01/07 07:46:28;;;;;;;10.68;9.63;;;1.40;57.30;;;;;;5031211;28;20177;-84
2022/01/07 07:48:54;;;;;;;11.03;9.87;;;1.40;58.80;;;;;;5030457;28;20185;-84
2022/01/07 07:51:20;;;;;;;10.57;9.60;;;1.30;58.00;;;;;;5030943;28;20486;-85
2022/01/07 07:53:46;;;;;;;9.87;8.87;;;1.40;58.90;;;;;;5030827;28;20177;-84
2022/01/07 07:56:14;;;;;;;12.35;9.90;;;1.40;58.90;;;;;;5031157;28;20182;-83
2022/01/07 07:58:40;;;;;;;11.38;9.05;;;1.60;59.00;;;;;;5030645;28;20260;-84
2022/01/07 08:01:06;;;;;;;11.50;10.07;;;2.50;66.60;;;;;;5030781;28;20201;-83
2022/01/07 08:03:33;;;;;;;9.52;8.63;;;2.50;55.40;;;;;;5030380;28;20210;-83
2022/01/07 08:05:59;;;;;;;9.50;8.60;;;2.20;56.30;;;;;;5031105;28;20179;-86
2022/01/07 08:08:24;;;;;;;10.23;9.30;;;2.00;56.20;;;;;;5030804;28;20799;-84
2022/01/07 08:10:54;;;;;;;10.80;8.60;;;1.80;57.10;;;;;;5030689;28;20463;-84
2022/01/07 08:15:58;;;;;;;11.73;10.02;;;1.70;57.70;;;;;;5030834;28;20539;-85
2022/01/07 08:16:19;;;;;;;10.68;9.68;;;1.70;57.70;;;;;;5031874;28;20180;-85
2022/01/07 08:18:49;;;;;;;9.40;8.55;;;1.70;57.40;;;;;;5030768;28;20653;-85
2022/01/07 08:21:15;;;;;;;12.68;9.73;;;1.70;56.70;;;;;;5030931;28;20184;-85
2022/01/07 08:23:43;;;;;;;11.40;9.88;;;1.60;56.70;;;;;;5032299;28;20169;-85
2022/01/07 08:26:10;;;;;;;10.05;9.15;;;1.70;58.10;;;;;;5030542;28;20180;-86
2022/01/07 08:28:41;;;;;;;10.23;9.23;;;1.70;56.70;;;;;;5030627;28;20216;-84
2022/01/07 08:36:20;;;;;;;10.68;9.38;;;1.70;57.50;;;;;;5032063;28;20196;-84
2022/01/07 08:38:48;;;;;;;10.77;9.68;;;1.70;56.40;;;;;;5030410;28;20176;-85
2022/01/07 08:41:14;;;;;;;10.80;9.67;;;1.80;57.40;;;;;;5030227;28;20246;-85
2022/01/07 08:43:40;;;;;;;12.00;9.90;;;1.80;57.10;;;;;;5030482;28;20419;-85
2022/01/07 08:46:12;;;;;;;9.37;8.57;;;1.80;56.80;;;;;;5030885;28;20429;-84
2022/01/07 08:48:38;;;;;;;10.00;8.82;;;1.80;56.50;;;;;;5030554;28;20545;-85
2022/01/07 08:51:06;;;;;;;8.90;8.00;;;1.90;58.10;;;;;;5029991;28;20300;-83
2022/01/07 08:53:32;;;;;;;10.07;9.10;;;1.80;56.50;;;;;;5030629;28;20429;-84
2022/01/07 08:55:57;;;;;;;10.00;8.98;;;1.90;56.20;;;;;;5030772;28;20451;-84
2022/01/07 08:58:23;;;;;;;10.83;9.73;;;1.80;56.30;;;;;;5030846;28;20204;-84
2022/01/07 09:00:49;;;;;;;10.00;9.00;;;1.90;56.10;;;;;;5030672;28;20188;-85
2022/01/07 09:03:15;;;;;;;10.48;9.27;;;2.00;56.50;;;;;;5030627;28;20427;-85
2022/01/07 09:05:41;;;;;;;9.23;8.30;;;2.00;56.90;;;;;;5030668;28;20544;-86
2022/01/07 09:08:09;;;;;;;10.37;9.00;;;1.90;54.60;;;;;;5030166;28;20427;-84
2022/01/07 09:10:35;;;;;;;10.48;8.75;;;1.90;55.10;;;;;;5030246;28;20201;-84
2022/01/07 09:13:01;;;;;;;8.40;7.60;;;2.00;56.40;;;;;;5030157;28;20177;-86
2022/01/07 09:15:26;;;;;;;15.03;8.97;;;2.00;55.90;;;;;;5032941;28;20184;-83
2022/01/07 09:17:52;;;;;;;9.83;8.50;;;2.00;55.30;;;;;;5018630;28;20683;-84
2022/01/07 09:20:18;;;;;;;9.57;8.57;;;2.10;55.60;;;;;;5028461;28;20192;-83
2022/01/07 09:22:44;;;;;;;8.77;7.47;;;2.00;55.20;;;;;;5034970;28;20277;-83
2022/01/07 09:25:10;;;;;;;10.00;9.00;;;2.00;54.10;;;;;;5033685;28;20614;-83
2022/01/07 09:27:36;;;;;;;9.40;8.40;;;2.10;55.40;;;;;;5034010;28;20180;-84
2022/01/07 09:30:03;;;;;;;9.80;8.65;;;2.10;54.40;;;;;;5033343;28;20190;-84
2022/01/07 09:32:29;;;;;;;8.90;8.10;;;2.10;54.20;;;;;;5033763;28;20207;-84
2022/01/07 09:34:54;;;;;;;8.30;7.50;;;2.10;54.30;;;;;;5033441;28;20254;-83
2022/01/07 09:37:20;;;;;;;8.80;7.90;;;2.20;53.70;;;;;;5033506;28;20179;-85
2022/01/07 09:39:45;;;;;;;8.60;7.80;;;2.20;54.10;;;;;;5033208;28;20356;-84
2022/01/07 09:42:11;;;;;;;9.77;8.77;;;2.20;53.80;;;;;;5035083;28;20179;-83
2022/01/07 09:44:43;;;;;;;8.50;7.20;;;2.20;53.30;;;;;;5033656;28;20187;-83
2022/01/07 09:47:11;;;;;;;8.90;8.00;;;2.20;55.40;;;;;;5033595;28;20275;-84
2022/01/07 09:49:37;;;;;;;9.20;8.38;;;2.20;53.50;;;;;;5032929;28;20212;-84
2022/01/07 09:52:04;;;;;;;8.65;7.80;;;2.20;54.90;;;;;;5033135;28;20261;-84
2022/01/07 09:54:32;;;;;;;8.38;7.55;;;2.20;54.40;;;;;;5033127;28;20544;-84
2022/01/07 09:56:58;;;;;;;9.30;7.50;;;2.30;54.30;;;;;;5033370;28;20173;-84
2022/01/07 09:59:24;;;;;;;9.32;8.10;;;2.30;53.70;;;;;;5033190;28;20648;-84
2022/01/07 10:01:57;;;;;;;8.70;7.90;;;2.40;54.20;;;;;;5033120;28;20194;-83
2022/01/07 10:04:40;;;;;;;10.20;7.90;;;2.30;53.00;;;;;;5033771;28;20637;-84
2022/01/07 10:07:16;;;;;;;9.10;7.80;;;2.30;54.60;;;;;;5033725;28;20489;-83
2022/01/07 10:09:56;;;;;;;8.03;7.33;;;2.40;54.10;;;;;;5033721;28;20415;-85
2022/01/07 10:12:22;;;;;;;8.52;7.72;;;2.40;54.20;;;;;;5033091;28;20431;-84
2022/01/07 10:15:10;;;;;;;9.50;8.50;;;2.30;54.50;;;;;;5033284;28;20579;-85
2022/01/07 10:17:36;;;;;;;9.95;7.97;;;2.40;56.80;;;;;;5032834;28;20249;-85
2022/01/07 10:20:02;;;;;;;8.67;7.70;;;2.40;57.60;;;;;;5032801;28;20262;-85
2022/01/07 10:22:28;;;;;;;7.93;7.17;;;2.30;59.10;;;;;;5033954;28;20211;-86
2022/01/07 10:24:59;;;;;;;9.90;8.90;;;2.30;60.10;;;;;;5031644;28;20447;-85
2022/01/07 10:27:33;;;;;;;9.70;8.80;;;2.20;60.90;;;;;;5031922;28;20646;-85
2022/01/07 10:29:59;;;;;;;9.43;8.32;;;2.10;62.30;;;;;;5016074;28;20592;-84
2022/01/07 10:32:27;;;;;;;9.00;7.63;;;2.10;63.80;;;;;;5032184;28;20169;-86
2022/01/07 10:35:08;;;;;;;11.25;10.07;;;2.10;65.00;;;;;;5033165;28;20626;-87
2022/01/07 10:37:36;;;;;;;9.57;8.57;;;2.20;64.70;;;;;;5033325;28;20180;-86
2022/01/07 10:40:37;;;;;;;9.90;7.70;;;2.20;67.20;;;;;;5031425;28;20177;-85
2022/01/07 10:43:29;;;;;;;8.87;7.97;;;2.30;67.30;;;;;;5032886;28;20407;-86
2022/01/07 10:46:15;;;;;;;10.00;8.98;;;2.30;66.40;;;;;;5032947;28;20939;-86
2022/01/07 10:48:44;;;;;;;9.23;8.40;;;2.30;67.10;;;;;;5032172;28;20195;-84
2022/01/07 10:51:12;;;;;;;10.40;9.40;;;2.30;66.50;;;;;;5032319;28;20463;-85
2022/01/07 10:53:39;;;;;;;11.37;8.70;;;2.30;65.80;;;;;;5032458;28;20454;-86
2022/01/07 10:56:09;;;;;;;10.30;9.00;;;2.20;66.70;;;;;;5032820;28;20451;-85
2022/01/07 10:58:47;;;;;;;9.50;8.57;;;2.20;69.00;;;;;;5033211;28;20203;-86
2022/01/07 11:01:19;;;;;;;10.38;9.32;;;2.10;68.40;;;;;;5032459;28;20633;-85
2022/01/07 11:03:46;;;;;;;10.63;9.60;;;2.10;71.20;;;;;;5032583;28;20180;-86
2022/01/07 11:06:15;;;;;;;10.97;9.30;;;2.10;69.90;;;;;;5032469;28;20427;-85
2022/01/07 11:08:41;;;;;;;10.10;9.10;;;2.00;70.80;;;;;;5032361;28;20419;-85
2022/01/07 11:11:11;;;;;;;10.77;9.70;;;1.90;70.40;;;;;;5032270;28;20200;-85
2022/01/07 11:13:37;;;;;;;16.83;10.20;;;1.90;71.00;;;;;;5033871;28;20769;-84
2022/01/07 11:16:05;;;;;;;11.40;9.77;;;2.00;73.50;;;;;;5032664;28;20404;-85
2022/01/07 11:18:31;;;;;;;10.77;9.67;;;2.00;72.30;;;;;;5032441;28;20785;-87
2022/01/07 11:21:00;;;;;;;9.60;8.70;;;2.00;73.10;;;;;;5032015;28;20423;-87
2022/01/07 11:23:26;;;;;;;11.17;8.97;;;1.90;73.60;;;;;;5032243;28;20439;-85
2022/01/07 11:26:06;;;;;;;9.93;8.80;;;2.00;72.10;;;;;;5031423;28;20761;-86
2022/01/07 11:28:33;;;;;;;10.87;9.63;;;2.10;73.10;;;;;;5032143;28;20425;-84
2022/01/07 11:31:16;;;;;;;9.75;8.73;;;2.10;74.20;;;;;;5032010;28;20446;-86
2022/01/07 11:33:42;;;;;;;13.27;10.40;;;2.20;72.70;;;;;;5032361;28;20169;-87
2022/01/07 11:36:12;;;;;;;12.50;9.73;;;2.20;74.40;;;;;;5032091;28;20970;-86
2022/01/07 11:38:46;;;;;;;10.88;9.88;;;2.20;73.60;;;;;;5031706;28;20173;-84
2022/01/07 11:41:41;;;;;;;13.30;10.55;;;2.20;73.30;;;;;;5032027;28;20633;-84
2022/01/07 11:44:13;;;;;;;11.33;10.13;;;2.20;74.00;;;;;;5026724;28;20614;-82
2022/01/07 11:46:39;;;;;;;11.45;9.18;;;2.20;75.00;;;;;;5031897;28;20790;-83
2022/01/07 11:49:05;;;;;;;10.80;9.70;;;2.30;74.90;;;;;;5032180;28;20274;-84
2022/01/07 11:51:41;;;;;;;11.20;9.30;;;2.40;74.60;;;;;;5031719;28;20216;-84
2022/01/07 11:54:09;;;;;;;9.83;8.20;;;2.50;74.90;;;;;;5031834;28;20494;-83
2022/01/07 11:56:37;;;;;;;11.88;10.68;;;2.50;74.20;;;;;;5031976;28;20415;-84
2022/01/07 11:59:14;;;;;;;11.02;9.25;;;2.50;72.70;;;;;;5033376;28;20184;-84
2022/01/07 12:01:40;;;;;;;12.63;9.87;;;2.60;71.70;;;;;;5032357;28;20183;-84
2022/01/07 12:04:28;;;;;;;10.60;9.43;;;2.70;71.40;;;;;;5031214;28;20494;-83
2022/01/07 12:07:01;;;;;;;11.20;10.10;;;2.70;70.50;;;;;;5029844;28;20422;-84
2022/01/07 12:09:29;;;;;;;9.83;8.93;;;2.80;69.70;;;;;;5030740;28;20966;-84
2022/01/07 12:12:03;;;;;;;9.53;8.63;;;2.90;68.40;;;;;;5030201;28;20513;-84
2022/01/07 12:14:36;;;;;;;10.37;9.37;;;2.80;66.10;;;;;;5030047;28;20414;-86
2022/01/07 12:17:04;;;;;;;9.43;8.53;;;2.90;66.60;;;;;;5030364;28;20407;-85
2022/01/07 12:19:50;;;;;;;9.20;8.30;;;2.90;66.90;;;;;;5030801;28;20442;-85
2022/01/07 12:22:16;;;;;;;8.55;7.72;;;2.90;66.00;;;;;;5033096;28;20426;-86
2022/01/07 12:24:43;;;;;;;8.50;7.70;;;2.90;65.80;;;;;;5033138;28;20267;-85
2022/01/07 12:27:11;;;;;;;9.00;8.00;;;2.80;63.60;;;;;;5034623;28;20785;-86
2022/01/07 12:29:42;;;;;;;9.00;8.20;;;2.90;65.80;;;;;;5032485;28;20427;-86
2022/01/07 12:32:09;;;;;;;9.83;7.63;;;3.00;65.40;;;;;;5031515;28;20458;-85
2022/01/07 12:34:40;;;;;;;8.10;7.37;;;3.00;63.80;;;;;;5032172;28;20484;-85
2022/01/07 12:37:10;;;;;;;7.20;6.50;;;2.90;62.60;;;;;;5031566;28;20423;-86
2022/01/07 12:39:47;;;;;;;7.67;6.87;;;3.00;63.10;;;;;;5031111;28;20180;-85
2022/01/07 12:42:13;;;;;;;8.60;6.57;;;3.00;62.60;;;;;;5031298;28;20415;-85
2022/01/07 12:44:44;;;;;;;6.83;6.23;;;2.90;62.50;;;;;;5032908;28;20408;-86
2022/01/07 12:47:14;;;;;;;7.97;7.10;;;2.90;62.00;;;;;;5031227;28;20465;-85
2022/01/07 12:49:41;;;;;;;8.40;7.60;;;3.00;62.10;;;;;;5032366;28;20422;-84
2022/01/07 12:52:15;;;;;;;7.40;6.80;;;3.00;62.10;;;;;;5034653;28;20859;-86
2022/01/07 12:54:57;;;;;;;9.07;7.40;;;3.10;61.60;;;;;;5036255;28;20399;-85
2022/01/07 12:57:42;;;;;;;7.87;6.97;;;3.10;60.90;;;;;;5034699;28;20435;-85
2022/01/07 13:00:16;;;;;;;7.07;5.90;;;3.20;61.80;;;;;;5035067;28;20418;-84